• Join FlightAware (Why Join?)
  • Login
  • US Flag 
09:45PM EDT


 

Airport Tracker/Info


-or-


 

Live Flight TrackerFlight Track Log ✈ UPS1121 ✈ 14-May-2013 ✈ KALB - KBDL

Flight Track Log - Related Links

Times and Time Zones

All times are in EDT time to prevent confusion due to time zone crossing. See the UPS1121 flight status page for this flight to view local times or setup timezone preferences in your user account.

Time Position Orientation Groundspeed Altitude Reporting Facility
EDT Latitude Longitude Course Direction KTS MPH feet Rate Location/Type
08:40PM 42.7319 -73.8081 173° South 152 175 1,800  Level Boston Center
08:41PM 42.7131 -73.8050 173° South 173 199 2,700 2,040 Climbing Boston Center
08:42PM 42.6572 -73.7756 159° South 237 273 4,700 2,520 Climbing Boston Center
08:42PM 42.6228 -73.7014 122° Southeast 275 316 7,600 3,180 Climbing Boston Center
08:43PM 42.5736 -73.6072 125° Southeast 298 343 10,800 2,280 Climbing Boston Center
08:44PM 42.5469 -73.5589 127° Southeast 325 374 11,000 180 Climbing Boston Center
08:44PM 42.5206 -73.5019 122° Southeast 322 371 11,000  Level Boston Center
08:45PM 42.5042 -73.4736 128° Southeast 355 409 11,000  Level Boston Center
08:45PM 42.4547 -73.3939 130° Southeast 357 411 11,000  Level Boston Center
08:46PM 42.4258 -73.3597 139° Southeast 359 413 11,000  Level Boston Center
08:46PM 42.3889 -73.3058 133° Southeast 351 404 11,000  Level Boston Center
08:47PM 42.3639 -73.2719 135° Southeast 322 371 11,000  Level Boston Center
08:47PM 42.3414 -73.2236 122° Southeast 319 367 11,000 -120 Level Boston Center
08:48PM 42.3189 -73.1728 121° Southeast 313 360 10,900 -1,140 Descending Boston Center
08:49PM 42.2819 -73.0714 116° Southeast 306 352 9,400 -1,500 Descending Boston Center
08:49PM 42.2572 -73.0094 118° Southeast 299 344 8,500 -1,680 Descending Boston Center
08:50PM 42.2181 -72.9139 119° Southeast 295 339 6,700 -1,620 Descending Boston Center
08:51PM 42.1683 -72.8433 134° Southeast 289 333 5,400 -900 Descending Boston Center
08:52PM 42.1103 -72.7675 136° Southeast 280 322 5,000 -240 Descending Boston Center
08:53PM 42.0519 -72.6917 136° Southeast 280 322 5,000  Level Boston Center
08:55PM 41.9833 -72.5992 135° Southeast 248 285 5,000 -240 Level Boston Center
08:56PM 41.9439 -72.5489 137° Southeast 221 254 4,500 -720 Descending Boston Center
08:57PM 41.9064 -72.4931 132° Southeast 197 227 3,700 -780 Descending Boston Center
08:58PM 41.8669 -72.4486 140° Southeast 194 223 3,000 -600 Descending Boston Center
08:59PM 41.8253 -72.4903 217° Southwest 179 206 2,500 -300 Descending Boston Center
09:00PM 41.8356 -72.5486 283° West 163 188 2,500  Level Boston Center